Terminal Aerodrome Forecast
Issued by NWS Sterling, VA

Home | Current Version | Previous Version | Text Only | Print | Product List | Glossary On
Versions: 1 2 3 4 5 6 7 8 9 10 11 12 13 14 15 16
000
FTUS41 KLWX 011724
TAFCHO
TAF
KCHO 011724Z 0118/0218 21008G16KT P6SM BKN050 BKN100
     FM012300 VRB04KT P6SM SCT050 SCT100
     FM020200 34006KT P6SM SCT050 SCT200
     FM021300 01006KT P6SM BKN200=

USA.gov is the U.S. government's official web portal to all federal, state and local government web resources and services.